LECV

Madri-Colmenar Airport

Spain
TAF LECV 181100Z 1812/1821 05012KT 9999 SCT040 TEMPO 1815/1821 4000 RA SHRA SCT030TCU PROB30 TEMPO 1815/1821 BKN010 PROB30 TEMPO 1812/1817 05015G25KT
Issued Valid From Valid To
Oct-18 @ 11:00 UTC
(an hour ago)
Oct-18 @ 12:00 UTC
(25 minutes ago)
Oct-18 @ 21:00 UTC
(in 9 hours)
Oct-18 @ 12:00 to Oct-18 @ 21:00
TAF LECV 181100Z 1812/1821 05012KT 9999 SCT040
Wind Visibility Clouds
50° at 12 knots 10,000+ meters
  • Scattered at 4,000' AGL
Temporary  (Probability 30%) Oct-18 @ 12:00 to Oct-18 @ 17:00
PROB30 TEMPO 1812/1817 05015G25KT
Wind
50° at 15 knots
 Gusting to 25 knots
Temporary  (Probability 30%) Oct-18 @ 15:00 to Oct-18 @ 21:00
PROB30 TEMPO 1815/1821 BKN010
Clouds
  • Broken at 1,000' AGL
Temporary Oct-18 @ 15:00 to Oct-18 @ 21:00
TEMPO 1815/1821 4000 RA SHRA SCT030TCU
Visibility Clouds Conditions
4,007 meters
  • Scattered at 3,000' AGL
  • Rain
  • Rain
TAF LECV 181100Z 1812/1821 05012KT 9999 SCT040 TEMPO 1815/1821 4000 RA SHRA SCT030TCU PROB30 TEMPO 1815/1821 BKN010 PROB30 TEMPO 1812/1817 05015G25KT
Issued Oct-18 @ 11:00 UTC
(an hour ago)
Valid From Oct-18 @ 12:00 UTC
(25 minutes ago)
Valid To Oct-18 @ 21:00 UTC
(in 9 hours)
Oct-18 @ 12:00 - Oct-18 @ 21:00
Wind Visibility
50° at 12 knots 10,000+ meters
Clouds
  • Scattered at 4,000' AGL
Probability 30% Temporary Oct-18 @ 12:00 - Oct-18 @ 17:00
Wind
50° at 15 knots
 Gusting to 25 knots
Probability 30% Temporary Oct-18 @ 15:00 - Oct-18 @ 21:00
Clouds
  • Broken at 1,000' AGL
Temporary Oct-18 @ 15:00 - Oct-18 @ 21:00
Clouds
  • Scattered at 3,000' AGL
Conditions
  • Rain
  • Rain